sensor_id;sensor_type;location;lat;lon;timestamp;P1;durP1;ratioP1;P2;durP2;ratioP2
72590;SDS011;60625;51.212;5.952;2023-12-29T00:03:20;6.40;;;1.10;;
72590;SDS011;60625;51.212;5.952;2023-12-29T00:08:21;8.50;;;1.40;;
72590;SDS011;60625;51.212;5.952;2023-12-29T00:13:21;10.20;;;1.00;;
72590;SDS011;60625;51.212;5.952;2023-12-29T00:18:24;7.20;;;1.00;;
72590;SDS011;60625;51.212;5.952;2023-12-29T00:23:24;8.10;;;1.10;;
72590;SDS011;60625;51.212;5.952;2023-12-29T00:28:25;11.70;;;1.30;;
72590;SDS011;60625;51.212;5.952;2023-12-29T00:33:26;8.90;;;1.40;;
72590;SDS011;60625;51.212;5.952;2023-12-29T00:38:27;6.50;;;0.80;;
72590;SDS011;60625;51.212;5.952;2023-12-29T00:43:30;8.70;;;1.10;;
72590;SDS011;60625;51.212;5.952;2023-12-29T00:48:34;7.50;;;1.20;;
72590;SDS011;60625;51.212;5.952;2023-12-29T00:53:35;8.30;;;1.40;;
72590;SDS011;60625;51.212;5.952;2023-12-29T00:58:37;7.70;;;1.20;;
72590;SDS011;60625;51.212;5.952;2023-12-29T01:03:38;7.50;;;1.10;;
72590;SDS011;60625;51.212;5.952;2023-12-29T01:08:38;7.90;;;1.50;;
72590;SDS011;60625;51.212;5.952;2023-12-29T01:13:39;5.50;;;1.30;;
72590;SDS011;60625;51.212;5.952;2023-12-29T01:18:39;9.00;;;1.10;;
72590;SDS011;60625;51.212;5.952;2023-12-29T01:23:40;11.30;;;1.60;;
72590;SDS011;60625;51.212;5.952;2023-12-29T01:28:41;9.40;;;1.50;;
72590;SDS011;60625;51.212;5.952;2023-12-29T01:33:41;9.20;;;2.00;;
72590;SDS011;60625;51.212;5.952;2023-12-29T01:38:44;10.60;;;1.40;;
72590;SDS011;60625;51.212;5.952;2023-12-29T01:44:17;11.60;;;1.60;;
72590;SDS011;60625;51.212;5.952;2023-12-29T01:49:20;13.70;;;1.50;;
72590;SDS011;60625;51.212;5.952;2023-12-29T01:54:23;11.10;;;1.40;;
72590;SDS011;60625;51.212;5.952;2023-12-29T01:59:26;9.30;;;1.40;;
72590;SDS011;60625;51.212;5.952;2023-12-29T02:04:28;12.60;;;1.70;;
72590;SDS011;60625;51.212;5.952;2023-12-29T02:09:28;8.30;;;1.50;;
72590;SDS011;60625;51.212;5.952;2023-12-29T02:14:29;9.40;;;1.30;;
72590;SDS011;60625;51.212;5.952;2023-12-29T02:19:38;11.70;;;1.60;;
72590;SDS011;60625;51.212;5.952;2023-12-29T02:24:39;8.30;;;1.30;;
72590;SDS011;60625;51.212;5.952;2023-12-29T02:29:44;9.90;;;1.30;;
72590;SDS011;60625;51.212;5.952;2023-12-29T02:34:57;9.00;;;1.30;;
72590;SDS011;60625;51.212;5.952;2023-12-29T02:39:58;11.10;;;1.50;;
72590;SDS011;60625;51.212;5.952;2023-12-29T02:44:59;10.40;;;1.50;;
72590;SDS011;60625;51.212;5.952;2023-12-29T02:50:00;10.20;;;1.80;;
72590;SDS011;60625;51.212;5.952;2023-12-29T02:55:00;10.60;;;1.40;;
72590;SDS011;60625;51.212;5.952;2023-12-29T03:00:01;10.80;;;1.60;;
72590;SDS011;60625;51.212;5.952;2023-12-29T03:05:04;8.40;;;1.20;;
72590;SDS011;60625;51.212;5.952;2023-12-29T03:10:07;10.40;;;1.10;;
72590;SDS011;60625;51.212;5.952;2023-12-29T03:15:08;12.60;;;1.50;;
72590;SDS011;60625;51.212;5.952;2023-12-29T03:20:09;10.90;;;1.20;;
72590;SDS011;60625;51.212;5.952;2023-12-29T03:25:10;8.50;;;1.50;;
72590;SDS011;60625;51.212;5.952;2023-12-29T03:30:11;10.40;;;1.20;;
72590;SDS011;60625;51.212;5.952;2023-12-29T03:35:12;11.60;;;1.50;;
72590;SDS011;60625;51.212;5.952;2023-12-29T03:40:13;8.80;;;1.30;;
72590;SDS011;60625;51.212;5.952;2023-12-29T03:45:14;8.10;;;1.40;;
72590;SDS011;60625;51.212;5.952;2023-12-29T03:50:15;6.50;;;1.00;;
72590;SDS011;60625;51.212;5.952;2023-12-29T03:55:16;8.70;;;1.30;;
72590;SDS011;60625;51.212;5.952;2023-12-29T04:00:17;9.30;;;1.50;;
72590;SDS011;60625;51.212;5.952;2023-12-29T04:05:19;7.00;;;0.90;;
72590;SDS011;60625;51.212;5.952;2023-12-29T04:10:20;10.70;;;1.30;;
72590;SDS011;60625;51.212;5.952;2023-12-29T04:15:20;8.10;;;1.10;;
72590;SDS011;60625;51.212;5.952;2023-12-29T04:20:21;8.30;;;1.20;;
72590;SDS011;60625;51.212;5.952;2023-12-29T04:25:21;8.50;;;1.10;;
72590;SDS011;60625;51.212;5.952;2023-12-29T04:30:22;9.30;;;1.30;;
72590;SDS011;60625;51.212;5.952;2023-12-29T04:35:23;10.00;;;1.20;;
72590;SDS011;60625;51.212;5.952;2023-12-29T04:40:23;8.40;;;1.20;;
72590;SDS011;60625;51.212;5.952;2023-12-29T04:45:24;11.50;;;1.60;;
72590;SDS011;60625;51.212;5.952;2023-12-29T04:50:24;10.70;;;1.80;;
72590;SDS011;60625;51.212;5.952;2023-12-29T04:55:25;7.60;;;1.10;;
72590;SDS011;60625;51.212;5.952;2023-12-29T05:00:26;9.40;;;1.40;;
72590;SDS011;60625;51.212;5.952;2023-12-29T05:05:26;9.50;;;1.20;;
72590;SDS011;60625;51.212;5.952;2023-12-29T05:10:27;10.00;;;1.10;;
72590;SDS011;60625;51.212;5.952;2023-12-29T05:15:27;9.40;;;1.20;;
72590;SDS011;60625;51.212;5.952;2023-12-29T05:20:28;12.00;;;1.40;;
72590;SDS011;60625;51.212;5.952;2023-12-29T05:25:28;7.90;;;1.20;;
72590;SDS011;60625;51.212;5.952;2023-12-29T05:30:29;11.10;;;1.10;;
72590;SDS011;60625;51.212;5.952;2023-12-29T05:35:31;8.70;;;1.10;;
72590;SDS011;60625;51.212;5.952;2023-12-29T05:40:32;9.60;;;1.40;;
72590;SDS011;60625;51.212;5.952;2023-12-29T05:45:32;9.80;;;1.40;;
72590;SDS011;60625;51.212;5.952;2023-12-29T05:50:33;9.00;;;1.30;;
72590;SDS011;60625;51.212;5.952;2023-12-29T05:55:34;8.40;;;1.10;;
72590;SDS011;60625;51.212;5.952;2023-12-29T06:00:36;6.60;;;1.00;;
72590;SDS011;60625;51.212;5.952;2023-12-29T06:05:37;11.70;;;1.60;;
72590;SDS011;60625;51.212;5.952;2023-12-29T06:10:38;10.60;;;1.20;;
72590;SDS011;60625;51.212;5.952;2023-12-29T06:15:38;11.50;;;1.30;;
72590;SDS011;60625;51.212;5.952;2023-12-29T06:20:39;7.20;;;1.10;;
72590;SDS011;60625;51.212;5.952;2023-12-29T06:25:39;9.50;;;1.30;;
72590;SDS011;60625;51.212;5.952;2023-12-29T06:30:42;9.40;;;1.40;;
72590;SDS011;60625;51.212;5.952;2023-12-29T06:35:42;10.30;;;1.30;;
72590;SDS011;60625;51.212;5.952;2023-12-29T06:40:43;8.70;;;1.20;;
72590;SDS011;60625;51.212;5.952;2023-12-29T06:45:44;6.30;;;0.90;;
72590;SDS011;60625;51.212;5.952;2023-12-29T06:50:45;10.10;;;1.00;;
72590;SDS011;60625;51.212;5.952;2023-12-29T06:55:46;8.20;;;1.30;;
72590;SDS011;60625;51.212;5.952;2023-12-29T07:00:46;9.80;;;1.20;;
72590;SDS011;60625;51.212;5.952;2023-12-29T07:05:47;8.20;;;1.70;;
72590;SDS011;60625;51.212;5.952;2023-12-29T07:10:48;8.50;;;0.90;;
72590;SDS011;60625;51.212;5.952;2023-12-29T07:15:50;9.90;;;1.70;;
72590;SDS011;60625;51.212;5.952;2023-12-29T07:20:51;8.40;;;1.10;;
72590;SDS011;60625;51.212;5.952;2023-12-29T07:25:51;13.40;;;1.70;;
72590;SDS011;60625;51.212;5.952;2023-12-29T07:30:52;11.00;;;1.40;;
72590;SDS011;60625;51.212;5.952;2023-12-29T07:35:53;10.10;;;1.50;;
72590;SDS011;60625;51.212;5.952;2023-12-29T07:40:53;12.00;;;1.40;;
72590;SDS011;60625;51.212;5.952;2023-12-29T07:45:54;6.40;;;1.30;;
72590;SDS011;60625;51.212;5.952;2023-12-29T07:50:56;9.70;;;1.40;;
72590;SDS011;60625;51.212;5.952;2023-12-29T07:55:58;6.50;;;1.10;;
72590;SDS011;60625;51.212;5.952;2023-12-29T08:00:59;5.90;;;0.90;;
72590;SDS011;60625;51.212;5.952;2023-12-29T08:06:00;6.60;;;1.20;;
72590;SDS011;60625;51.212;5.952;2023-12-29T08:11:00;5.20;;;0.90;;
72590;SDS011;60625;51.212;5.952;2023-12-29T08:16:01;7.00;;;1.40;;
72590;SDS011;60625;51.212;5.952;2023-12-29T08:21:01;5.80;;;1.20;;
72590;SDS011;60625;51.212;5.952;2023-12-29T08:26:03;6.50;;;0.90;;
72590;SDS011;60625;51.212;5.952;2023-12-29T08:31:03;8.60;;;1.10;;
72590;SDS011;60625;51.212;5.952;2023-12-29T08:36:05;5.00;;;0.80;;
72590;SDS011;60625;51.212;5.952;2023-12-29T08:41:06;4.70;;;0.80;;
72590;SDS011;60625;51.212;5.952;2023-12-29T08:46:07;5.20;;;0.90;;
72590;SDS011;60625;51.212;5.952;2023-12-29T08:51:07;2.40;;;0.40;;
72590;SDS011;60625;51.212;5.952;2023-12-29T08:56:08;2.90;;;0.50;;
72590;SDS011;60625;51.212;5.952;2023-12-29T09:01:09;3.30;;;0.40;;
72590;SDS011;60625;51.212;5.952;2023-12-29T09:06:09;3.20;;;0.60;;
72590;SDS011;60625;51.212;5.952;2023-12-29T09:11:10;2.10;;;0.50;;
72590;SDS011;60625;51.212;5.952;2023-12-29T09:16:10;3.10;;;0.50;;
72590;SDS011;60625;51.212;5.952;2023-12-29T09:21:11;4.30;;;0.60;;
72590;SDS011;60625;51.212;5.952;2023-12-29T09:26:12;4.20;;;0.70;;
72590;SDS011;60625;51.212;5.952;2023-12-29T09:31:13;3.10;;;0.90;;
72590;SDS011;60625;51.212;5.952;2023-12-29T09:36:14;6.70;;;1.20;;
72590;SDS011;60625;51.212;5.952;2023-12-29T09:41:15;3.70;;;1.10;;
72590;SDS011;60625;51.212;5.952;2023-12-29T09:46:17;5.10;;;1.40;;
72590;SDS011;60625;51.212;5.952;2023-12-29T09:51:19;7.20;;;1.40;;
72590;SDS011;60625;51.212;5.952;2023-12-29T09:56:23;9.90;;;1.20;;
72590;SDS011;60625;51.212;5.952;2023-12-29T10:01:25;8.20;;;1.00;;
72590;SDS011;60625;51.212;5.952;2023-12-29T10:06:33;6.60;;;1.10;;
72590;SDS011;60625;51.212;5.952;2023-12-29T10:11:37;7.20;;;0.70;;
72590;SDS011;60625;51.212;5.952;2023-12-29T10:16:42;4.30;;;1.00;;
72590;SDS011;60625;51.212;5.952;2023-12-29T10:22:08;5.20;;;0.80;;
72590;SDS011;60625;51.212;5.952;2023-12-29T10:27:14;5.50;;;0.90;;
72590;SDS011;60625;51.212;5.952;2023-12-29T10:32:15;4.20;;;0.70;;
72590;SDS011;60625;51.212;5.952;2023-12-29T10:37:22;5.00;;;0.50;;
72590;SDS011;60625;51.212;5.952;2023-12-29T10:42:23;2.30;;;0.50;;
72590;SDS011;60625;51.212;5.952;2023-12-29T10:47:24;3.40;;;0.60;;
72590;SDS011;60625;51.212;5.952;2023-12-29T10:52:24;2.80;;;0.40;;
72590;SDS011;60625;51.212;5.952;2023-12-29T10:57:25;7.10;;;0.70;;
72590;SDS011;60625;51.212;5.952;2023-12-29T11:02:27;5.40;;;0.90;;
72590;SDS011;60625;51.212;5.952;2023-12-29T11:07:37;8.90;;;0.90;;
72590;SDS011;60625;51.212;5.952;2023-12-29T11:12:38;6.40;;;0.80;;
72590;SDS011;60625;51.212;5.952;2023-12-29T11:17:41;7.30;;;1.10;;
72590;SDS011;60625;51.212;5.952;2023-12-29T11:22:49;5.20;;;1.00;;
72590;SDS011;60625;51.212;5.952;2023-12-29T11:27:50;3.90;;;0.70;;
72590;SDS011;60625;51.212;5.952;2023-12-29T11:32:57;7.60;;;1.10;;
72590;SDS011;60625;51.212;5.952;2023-12-29T11:43:43;2.50;;;0.80;;
72590;SDS011;60625;51.212;5.952;2023-12-29T11:48:56;3.50;;;0.60;;
72590;SDS011;60625;51.212;5.952;2023-12-29T11:53:57;2.50;;;0.50;;
72590;SDS011;60625;51.212;5.952;2023-12-29T11:59:15;3.90;;;0.70;;
72590;SDS011;60625;51.212;5.952;2023-12-29T12:04:33;5.00;;;0.90;;
72590;SDS011;60625;51.212;5.952;2023-12-29T12:09:44;8.40;;;1.30;;
72590;SDS011;60625;51.212;5.952;2023-12-29T12:14:53;11.60;;;1.50;;
72590;SDS011;60625;51.212;5.952;2023-12-29T12:20:07;6.40;;;1.20;;
72590;SDS011;60625;51.212;5.952;2023-12-29T12:25:11;5.00;;;1.30;;
72590;SDS011;60625;51.212;5.952;2023-12-29T12:30:18;7.10;;;1.50;;
72590;SDS011;60625;51.212;5.952;2023-12-29T12:35:20;7.30;;;1.20;;
72590;SDS011;60625;51.212;5.952;2023-12-29T12:40:25;5.00;;;0.90;;
72590;SDS011;60625;51.212;5.952;2023-12-29T12:45:29;6.10;;;1.30;;
72590;SDS011;60625;51.212;5.952;2023-12-29T12:50:45;5.30;;;1.10;;
72590;SDS011;60625;51.212;5.952;2023-12-29T12:55:49;7.40;;;1.10;;
72590;SDS011;60625;51.212;5.952;2023-12-29T13:00:51;4.70;;;0.90;;
72590;SDS011;60625;51.212;5.952;2023-12-29T13:05:53;6.30;;;1.30;;
72590;SDS011;60625;51.212;5.952;2023-12-29T13:10:54;7.40;;;1.30;;
72590;SDS011;60625;51.212;5.952;2023-12-29T13:15:54;7.40;;;1.30;;
72590;SDS011;60625;51.212;5.952;2023-12-29T13:20:55;5.80;;;1.40;;
72590;SDS011;60625;51.212;5.952;2023-12-29T13:26:07;8.70;;;1.00;;
72590;SDS011;60625;51.212;5.952;2023-12-29T13:31:11;7.00;;;1.30;;
72590;SDS011;60625;51.212;5.952;2023-12-29T13:36:34;5.40;;;1.10;;
72590;SDS011;60625;51.212;5.952;2023-12-29T13:41:42;5.90;;;0.90;;
72590;SDS011;60625;51.212;5.952;2023-12-29T13:46:44;4.70;;;0.80;;
72590;SDS011;60625;51.212;5.952;2023-12-29T13:51:45;6.80;;;1.10;;
72590;SDS011;60625;51.212;5.952;2023-12-29T13:56:55;3.80;;;0.80;;
72590;SDS011;60625;51.212;5.952;2023-12-29T14:01:58;4.80;;;0.80;;
72590;SDS011;60625;51.212;5.952;2023-12-29T14:07:01;2.00;;;0.40;;
72590;SDS011;60625;51.212;5.952;2023-12-29T14:12:02;3.80;;;1.10;;
72590;SDS011;60625;51.212;5.952;2023-12-29T14:17:04;4.30;;;1.00;;
72590;SDS011;60625;51.212;5.952;2023-12-29T14:22:04;2.70;;;0.60;;
72590;SDS011;60625;51.212;5.952;2023-12-29T14:27:05;3.90;;;0.60;;
72590;SDS011;60625;51.212;5.952;2023-12-29T14:32:09;4.10;;;0.60;;
72590;SDS011;60625;51.212;5.952;2023-12-29T14:37:10;2.40;;;0.50;;
72590;SDS011;60625;51.212;5.952;2023-12-29T14:42:10;6.60;;;1.00;;
72590;SDS011;60625;51.212;5.952;2023-12-29T14:47:11;4.50;;;1.00;;
72590;SDS011;60625;51.212;5.952;2023-12-29T14:52:13;3.50;;;1.20;;
72590;SDS011;60625;51.212;5.952;2023-12-29T14:57:13;4.10;;;1.20;;
72590;SDS011;60625;51.212;5.952;2023-12-29T15:02:14;4.80;;;1.20;;
72590;SDS011;60625;51.212;5.952;2023-12-29T15:07:18;8.10;;;1.00;;
72590;SDS011;60625;51.212;5.952;2023-12-29T15:12:18;3.50;;;0.90;;
72590;SDS011;60625;51.212;5.952;2023-12-29T15:17:19;5.10;;;1.30;;
72590;SDS011;60625;51.212;5.952;2023-12-29T15:22:19;3.50;;;0.90;;
72590;SDS011;60625;51.212;5.952;2023-12-29T15:27:20;4.90;;;1.00;;
72590;SDS011;60625;51.212;5.952;2023-12-29T15:32:20;4.00;;;1.00;;
72590;SDS011;60625;51.212;5.952;2023-12-29T15:37:21;4.10;;;0.90;;
72590;SDS011;60625;51.212;5.952;2023-12-29T15:42:21;4.30;;;1.50;;
72590;SDS011;60625;51.212;5.952;2023-12-29T15:47:22;3.90;;;0.60;;
72590;SDS011;60625;51.212;5.952;2023-12-29T15:52:22;3.80;;;1.10;;
72590;SDS011;60625;51.212;5.952;2023-12-29T15:57:23;4.60;;;1.30;;
72590;SDS011;60625;51.212;5.952;2023-12-29T16:02:23;3.20;;;0.90;;
72590;SDS011;60625;51.212;5.952;2023-12-29T16:07:25;4.80;;;1.40;;
72590;SDS011;60625;51.212;5.952;2023-12-29T16:12:26;4.70;;;1.40;;
72590;SDS011;60625;51.212;5.952;2023-12-29T16:17:26;5.20;;;1.30;;
72590;SDS011;60625;51.212;5.952;2023-12-29T16:22:27;3.70;;;1.20;;
72590;SDS011;60625;51.212;5.952;2023-12-29T16:27:27;4.80;;;1.20;;
72590;SDS011;60625;51.212;5.952;2023-12-29T16:32:28;3.60;;;1.00;;
72590;SDS011;60625;51.212;5.952;2023-12-29T16:37:37;3.50;;;1.00;;
72590;SDS011;60625;51.212;5.952;2023-12-29T16:42:41;8.20;;;2.10;;
72590;SDS011;60625;51.212;5.952;2023-12-29T16:47:41;5.60;;;1.70;;
72590;SDS011;60625;51.212;5.952;2023-12-29T16:52:42;10.50;;;2.50;;
72590;SDS011;60625;51.212;5.952;2023-12-29T16:57:44;7.80;;;1.80;;
72590;SDS011;60625;51.212;5.952;2023-12-29T17:02:44;6.60;;;1.60;;
72590;SDS011;60625;51.212;5.952;2023-12-29T17:07:45;8.10;;;1.80;;
72590;SDS011;60625;51.212;5.952;2023-12-29T17:12:46;5.30;;;1.60;;
72590;SDS011;60625;51.212;5.952;2023-12-29T17:17:47;8.30;;;2.00;;
72590;SDS011;60625;51.212;5.952;2023-12-29T17:22:47;5.90;;;1.30;;
72590;SDS011;60625;51.212;5.952;2023-12-29T17:27:48;7.80;;;1.50;;
72590;SDS011;60625;51.212;5.952;2023-12-29T17:32:49;6.00;;;1.40;;
72590;SDS011;60625;51.212;5.952;2023-12-29T17:37:50;5.30;;;1.20;;
72590;SDS011;60625;51.212;5.952;2023-12-29T17:42:50;6.50;;;1.30;;
72590;SDS011;60625;51.212;5.952;2023-12-29T17:47:50;7.50;;;1.20;;
72590;SDS011;60625;51.212;5.952;2023-12-29T17:52:51;5.20;;;1.50;;
72590;SDS011;60625;51.212;5.952;2023-12-29T17:57:51;8.70;;;1.40;;
72590;SDS011;60625;51.212;5.952;2023-12-29T18:02:52;6.40;;;1.40;;
72590;SDS011;60625;51.212;5.952;2023-12-29T18:07:53;3.20;;;0.80;;
72590;SDS011;60625;51.212;5.952;2023-12-29T18:12:53;6.30;;;1.20;;
72590;SDS011;60625;51.212;5.952;2023-12-29T18:17:54;7.90;;;1.40;;
72590;SDS011;60625;51.212;5.952;2023-12-29T18:22:55;7.80;;;1.50;;
72590;SDS011;60625;51.212;5.952;2023-12-29T18:27:55;4.10;;;1.20;;
72590;SDS011;60625;51.212;5.952;2023-12-29T18:32:56;5.40;;;1.40;;
72590;SDS011;60625;51.212;5.952;2023-12-29T18:37:57;7.10;;;1.70;;
72590;SDS011;60625;51.212;5.952;2023-12-29T18:42:59;9.20;;;1.70;;
72590;SDS011;60625;51.212;5.952;2023-12-29T18:47:59;7.50;;;1.20;;
72590;SDS011;60625;51.212;5.952;2023-12-29T18:53:00;8.70;;;1.30;;
72590;SDS011;60625;51.212;5.952;2023-12-29T18:58:01;5.80;;;1.20;;
72590;SDS011;60625;51.212;5.952;2023-12-29T19:03:03;5.50;;;1.40;;
72590;SDS011;60625;51.212;5.952;2023-12-29T19:08:04;9.90;;;1.40;;
72590;SDS011;60625;51.212;5.952;2023-12-29T19:13:05;6.30;;;1.40;;
72590;SDS011;60625;51.212;5.952;2023-12-29T19:18:06;7.30;;;1.40;;
72590;SDS011;60625;51.212;5.952;2023-12-29T19:23:07;12.30;;;1.90;;
72590;SDS011;60625;51.212;5.952;2023-12-29T19:28:08;7.80;;;1.00;;
72590;SDS011;60625;51.212;5.952;2023-12-29T19:33:09;6.60;;;1.00;;
72590;SDS011;60625;51.212;5.952;2023-12-29T19:38:09;7.60;;;1.20;;
72590;SDS011;60625;51.212;5.952;2023-12-29T19:43:10;6.00;;;1.30;;
72590;SDS011;60625;51.212;5.952;2023-12-29T19:48:10;9.90;;;1.00;;
72590;SDS011;60625;51.212;5.952;2023-12-29T19:53:11;9.70;;;1.50;;
72590;SDS011;60625;51.212;5.952;2023-12-29T19:58:12;7.10;;;1.20;;
72590;SDS011;60625;51.212;5.952;2023-12-29T20:03:13;11.00;;;1.30;;
72590;SDS011;60625;51.212;5.952;2023-12-29T20:08:13;6.80;;;1.80;;
72590;SDS011;60625;51.212;5.952;2023-12-29T20:13:14;11.40;;;1.70;;
72590;SDS011;60625;51.212;5.952;2023-12-29T20:18:15;11.10;;;1.60;;
72590;SDS011;60625;51.212;5.952;2023-12-29T20:23:16;5.60;;;1.50;;
72590;SDS011;60625;51.212;5.952;2023-12-29T20:28:16;9.00;;;1.40;;
72590;SDS011;60625;51.212;5.952;2023-12-29T20:33:17;9.20;;;1.60;;
72590;SDS011;60625;51.212;5.952;2023-12-29T20:38:18;12.90;;;1.60;;
72590;SDS011;60625;51.212;5.952;2023-12-29T20:43:18;12.20;;;1.50;;
72590;SDS011;60625;51.212;5.952;2023-12-29T20:48:19;14.80;;;2.30;;
72590;SDS011;60625;51.212;5.952;2023-12-29T20:53:19;6.40;;;1.20;;
72590;SDS011;60625;51.212;5.952;2023-12-29T20:58:20;6.60;;;1.30;;
72590;SDS011;60625;51.212;5.952;2023-12-29T21:03:20;10.90;;;1.80;;
72590;SDS011;60625;51.212;5.952;2023-12-29T21:08:21;11.80;;;1.90;;
72590;SDS011;60625;51.212;5.952;2023-12-29T21:13:22;12.40;;;2.00;;
72590;SDS011;60625;51.212;5.952;2023-12-29T21:18:24;21.10;;;2.10;;
72590;SDS011;60625;51.212;5.952;2023-12-29T21:23:24;9.20;;;1.40;;
72590;SDS011;60625;51.212;5.952;2023-12-29T21:28:25;9.80;;;1.50;;
72590;SDS011;60625;51.212;5.952;2023-12-29T21:33:27;9.00;;;1.50;;
72590;SDS011;60625;51.212;5.952;2023-12-29T21:38:28;11.60;;;1.30;;
72590;SDS011;60625;51.212;5.952;2023-12-29T21:43:29;11.10;;;1.40;;
72590;SDS011;60625;51.212;5.952;2023-12-29T21:48:29;11.80;;;1.40;;
72590;SDS011;60625;51.212;5.952;2023-12-29T21:53:30;10.40;;;1.50;;
72590;SDS011;60625;51.212;5.952;2023-12-29T21:58:30;10.70;;;1.80;;
72590;SDS011;60625;51.212;5.952;2023-12-29T22:03:31;11.60;;;1.50;;
72590;SDS011;60625;51.212;5.952;2023-12-29T22:08:32;16.60;;;1.80;;
72590;SDS011;60625;51.212;5.952;2023-12-29T22:13:33;14.80;;;1.60;;
72590;SDS011;60625;51.212;5.952;2023-12-29T22:18:33;12.60;;;1.50;;
72590;SDS011;60625;51.212;5.952;2023-12-29T22:23:34;15.80;;;1.80;;
72590;SDS011;60625;51.212;5.952;2023-12-29T22:28:34;7.70;;;1.30;;
72590;SDS011;60625;51.212;5.952;2023-12-29T22:33:34;10.10;;;1.40;;
72590;SDS011;60625;51.212;5.952;2023-12-29T22:38:36;8.90;;;1.50;;
72590;SDS011;60625;51.212;5.952;2023-12-29T22:43:37;17.20;;;1.80;;
72590;SDS011;60625;51.212;5.952;2023-12-29T22:48:37;7.60;;;1.30;;
72590;SDS011;60625;51.212;5.952;2023-12-29T22:53:38;11.80;;;1.70;;
72590;SDS011;60625;51.212;5.952;2023-12-29T22:58:40;11.00;;;2.20;;
72590;SDS011;60625;51.212;5.952;2023-12-29T23:03:40;16.90;;;1.60;;
72590;SDS011;60625;51.212;5.952;2023-12-29T23:08:41;15.10;;;1.80;;
72590;SDS011;60625;51.212;5.952;2023-12-29T23:13:41;9.60;;;1.10;;
72590;SDS011;60625;51.212;5.952;2023-12-29T23:18:42;11.40;;;1.50;;
72590;SDS011;60625;51.212;5.952;2023-12-29T23:23:44;9.60;;;1.40;;
72590;SDS011;60625;51.212;5.952;2023-12-29T23:28:45;8.80;;;1.20;;
72590;SDS011;60625;51.212;5.952;2023-12-29T23:33:46;8.50;;;1.20;;
72590;SDS011;60625;51.212;5.952;2023-12-29T23:38:47;12.50;;;1.50;;
72590;SDS011;60625;51.212;5.952;2023-12-29T23:43:47;12.50;;;1.40;;
72590;SDS011;60625;51.212;5.952;2023-12-29T23:48:49;16.10;;;1.50;;
72590;SDS011;60625;51.212;5.952;2023-12-29T23:53:49;14.90;;;1.60;;
72590;SDS011;60625;51.212;5.952;2023-12-29T23:58:50;7.00;;;1.10;;
